createdAt,value
2024-03-16T00:02:48.565Z,1893
2024-03-16T00:08:19.030Z,1895
2024-03-16T00:13:48.514Z,1922
2024-03-16T00:19:19.402Z,1933
2024-03-16T00:24:49.517Z,1936
2024-03-16T00:30:20.310Z,1934
2024-03-16T00:35:50.645Z,1941
2024-03-16T00:41:20.144Z,1988
2024-03-16T00:46:50.581Z,2013
2024-03-16T00:52:21.073Z,2018
2024-03-16T00:57:51.712Z,2022
2024-03-16T01:03:22.157Z,2010
2024-03-16T01:08:51.627Z,2002
2024-03-16T01:14:22.106Z,2009
2024-03-16T01:19:52.611Z,2015
2024-03-16T01:25:23.212Z,2019
2024-03-16T01:30:53.696Z,2012
2024-03-16T01:36:24.237Z,2010
2024-03-16T01:41:53.758Z,2027
2024-03-16T01:47:24.234Z,2034
2024-03-16T01:52:54.787Z,2044
2024-03-16T01:58:25.265Z,2055
2024-03-16T02:03:55.764Z,2076
2024-03-16T02:09:26.478Z,2077
2024-03-16T02:14:56.818Z,2066
2024-03-16T02:20:27.394Z,2059
2024-03-16T02:25:58.135Z,2097
2024-03-16T02:31:28.588Z,2106
2024-03-16T02:36:59.153Z,2097
2024-03-16T02:42:29.736Z,2092
2024-03-16T02:48:00.267Z,2102
2024-03-16T02:53:30.692Z,2109
2024-03-16T02:59:01.252Z,2116
2024-03-16T03:10:01.255Z,2115
2024-03-16T03:15:31.767Z,2104
2024-03-16T03:21:02.199Z,2098
2024-03-16T03:26:32.762Z,2090
2024-03-16T03:32:03.278Z,2112
2024-03-16T03:37:33.735Z,2111
2024-03-16T03:43:04.443Z,2101
2024-03-16T03:48:34.853Z,2132
2024-03-16T03:54:05.335Z,2141
2024-03-16T03:59:35.925Z,2153
2024-03-16T04:05:06.408Z,2150
2024-03-16T04:10:37.013Z,2163
2024-03-16T04:21:38.342Z,2158
2024-03-16T04:27:08.719Z,2158
2024-03-16T04:32:39.266Z,2186
2024-03-16T04:38:09.667Z,2215
2024-03-16T04:43:40.274Z,2229
2024-03-16T04:49:11.008Z,2214
2024-03-16T04:54:40.382Z,2180
2024-03-16T05:00:10.834Z,2177
2024-03-16T05:05:41.337Z,2194
2024-03-16T05:11:11.994Z,2184
2024-03-16T05:16:42.525Z,2196
2024-03-16T05:22:12.936Z,2204
2024-03-16T05:27:43.908Z,2192
2024-03-16T05:33:14.114Z,2175
2024-03-16T05:38:44.621Z,2174
2024-03-16T05:44:15.113Z,2191
2024-03-16T05:49:45.586Z,2198
2024-03-16T05:55:16.229Z,2216
2024-03-16T06:00:46.706Z,2215
2024-03-16T06:06:17.293Z,2184
2024-03-16T06:11:47.774Z,2057
2024-03-16T06:17:18.254Z,2012
2024-03-16T06:22:48.810Z,1988
2024-03-16T06:28:19.364Z,1948
2024-03-16T06:33:49.829Z,1902
2024-03-16T06:39:20.366Z,1871
2024-03-16T06:44:50.839Z,1849
2024-03-16T06:50:21.430Z,1826
2024-03-16T06:55:51.883Z,1812
2024-03-16T07:01:22.512Z,1802
2024-03-16T07:06:53.019Z,1790
2024-03-16T07:12:23.433Z,1771
2024-03-16T07:17:53.941Z,1749
2024-03-16T07:23:23.415Z,1733
2024-03-16T07:28:53.887Z,1701
2024-03-16T07:34:24.498Z,1604
2024-03-16T07:39:55.041Z,1513
2024-03-16T07:45:25.423Z,1474
2024-03-16T07:50:54.906Z,1421
2024-03-16T07:56:25.401Z,1357
2024-03-16T08:01:56.070Z,1315
2024-03-16T08:07:26.465Z,1267
2024-03-16T08:12:57.012Z,1215
2024-03-16T08:18:26.421Z,1140
2024-03-16T08:23:56.897Z,1088
2024-03-16T08:29:27.354Z,1040
2024-03-16T08:34:58.031Z,1019
2024-03-16T08:40:28.527Z,1012
2024-03-16T08:45:59.279Z,998
2024-03-16T08:51:29.503Z,996
2024-03-16T08:56:59.989Z,999
2024-03-16T09:02:30.709Z,1011
2024-03-16T09:08:01.183Z,1017
2024-03-16T09:13:31.821Z,1028
2024-03-16T09:19:02.321Z,1027
2024-03-16T09:24:32.757Z,1026
2024-03-16T09:30:02.238Z,1030
2024-03-16T09:35:32.709Z,1030
2024-03-16T09:41:03.265Z,1037
2024-03-16T09:46:33.778Z,1049
2024-03-16T09:52:04.429Z,1052
2024-03-16T09:57:34.835Z,1063
2024-03-16T10:03:05.436Z,1072
2024-03-16T10:08:35.891Z,1073
2024-03-16T10:14:06.374Z,1087
2024-03-16T10:19:36.970Z,1085
2024-03-16T10:25:07.631Z,1101
2024-03-16T10:30:37.983Z,1098
2024-03-16T10:36:08.527Z,1108
2024-03-16T10:41:39.167Z,1114
2024-03-16T10:47:09.640Z,1124
2024-03-16T10:52:40.217Z,1127
2024-03-16T10:58:10.680Z,1141
2024-03-16T11:03:41.446Z,1164
2024-03-16T11:09:11.906Z,1167
2024-03-16T11:14:42.422Z,1190
2024-03-16T11:20:13.061Z,1202
2024-03-16T11:25:43.479Z,1209
2024-03-16T11:31:12.954Z,1203
2024-03-16T11:36:43.435Z,1200
2024-03-16T11:42:13.974Z,1198
2024-03-16T11:47:44.505Z,1201
2024-03-16T11:53:14.957Z,1206
2024-03-16T11:58:45.616Z,1209
2024-03-16T12:04:14.988Z,1218
2024-03-16T12:09:45.486Z,1223
2024-03-16T12:15:15.960Z,1233
2024-03-16T12:20:46.570Z,1240
2024-03-16T12:26:17.044Z,1251
2024-03-16T12:31:47.620Z,1252
2024-03-16T12:37:18.078Z,1254
2024-03-16T12:42:48.575Z,1261
2024-03-16T12:48:19.196Z,1256
2024-03-16T12:53:49.657Z,1260
2024-03-16T12:59:20.269Z,1250
2024-03-16T13:04:50.741Z,1249
2024-03-16T13:10:21.275Z,1235
2024-03-16T13:15:51.826Z,1230
2024-03-16T13:21:22.310Z,1226
2024-03-16T13:26:52.788Z,1226
2024-03-16T13:32:23.421Z,1214
2024-03-16T13:37:53.853Z,1201
2024-03-16T13:43:24.403Z,1196
2024-03-16T13:48:53.813Z,1194
2024-03-16T13:54:24.290Z,1190
2024-03-16T13:59:54.766Z,1193
2024-03-16T14:05:24.289Z,1192
2024-03-16T14:10:54.769Z,1182
2024-03-16T14:16:25.562Z,1177
2024-03-16T14:21:55.816Z,1172
2024-03-16T14:27:26.507Z,1178
2024-03-16T14:32:56.880Z,1180
2024-03-16T14:38:27.436Z,1179
2024-03-16T14:43:57.844Z,1169
2024-03-16T14:49:27.387Z,1163
2024-03-16T14:54:57.780Z,1162
2024-03-16T15:00:28.280Z,1163
2024-03-16T15:05:58.895Z,1161
2024-03-16T15:11:29.389Z,1161
2024-03-16T15:16:59.973Z,1161
2024-03-16T15:22:30.642Z,1173
2024-03-16T15:33:30.420Z,1201
2024-03-16T15:39:02.430Z,1207
2024-03-16T15:44:31.384Z,1215
2024-03-16T15:50:02.147Z,1221
2024-03-16T15:55:32.600Z,1222
2024-03-16T16:01:03.069Z,1223
2024-03-16T16:06:32.594Z,1227
2024-03-16T16:12:03.041Z,1232
2024-03-16T16:17:33.506Z,1228
2024-03-16T16:23:04.099Z,1231
2024-03-16T16:28:34.571Z,1235
2024-03-16T16:39:34.576Z,1225
2024-03-16T16:45:05.038Z,1225
2024-03-16T16:50:35.691Z,1236
2024-03-16T16:56:06.176Z,1240
2024-03-16T17:01:36.757Z,1250
2024-03-16T17:07:07.205Z,1258
2024-03-16T17:12:37.801Z,1256
2024-03-16T17:18:08.296Z,1265
2024-03-16T17:23:38.765Z,1260
2024-03-16T17:29:09.353Z,1263
2024-03-16T17:34:39.835Z,1268
2024-03-16T17:40:10.304Z,1271
2024-03-16T17:45:39.794Z,1271
2024-03-16T17:51:10.252Z,1278
2024-03-16T17:56:39.731Z,1277
2024-03-16T18:02:10.233Z,1272
2024-03-16T18:07:40.678Z,1274
2024-03-16T18:18:40.632Z,1283
2024-03-16T18:24:11.135Z,1292
2024-03-16T18:29:41.723Z,1300
2024-03-16T18:35:12.217Z,1307
2024-03-16T18:46:12.303Z,1320
2024-03-16T18:51:42.783Z,1322
2024-03-16T18:57:12.266Z,1327
2024-03-16T19:02:51.497Z,1332
2024-03-16T19:08:13.255Z,1328
2024-03-16T19:13:43.850Z,1337
2024-03-16T19:19:14.328Z,1350
2024-03-16T19:24:44.797Z,1356
2024-03-16T19:30:15.504Z,1360
2024-03-16T19:35:45.995Z,1357
2024-03-16T19:41:15.484Z,1360
2024-03-16T19:46:45.919Z,1356
2024-03-16T19:57:47.007Z,1373
2024-03-16T20:03:17.503Z,1367
2024-03-16T20:08:47.950Z,1367
2024-03-16T20:14:18.587Z,1365
2024-03-16T20:19:49.053Z,1380
2024-03-16T20:25:19.522Z,1391
2024-03-16T20:30:49.001Z,1390
2024-03-16T20:36:19.507Z,1398
2024-03-16T20:41:49.962Z,1399
2024-03-16T20:47:20.537Z,1397
2024-03-16T20:52:51.008Z,1400
2024-03-16T20:58:21.625Z,1403
2024-03-16T21:09:22.713Z,1407
2024-03-16T21:14:53.165Z,1405
2024-03-16T21:20:23.628Z,1482
2024-03-16T21:25:54.261Z,1554
2024-03-16T21:31:24.726Z,1616
2024-03-16T21:36:55.279Z,1676
2024-03-16T21:42:25.786Z,1713
2024-03-16T21:47:56.258Z,1750
2024-03-16T21:53:26.773Z,1770
2024-03-16T21:58:57.406Z,1815
2024-03-16T22:09:58.383Z,1782
2024-03-16T22:15:27.816Z,1835
2024-03-16T22:20:58.303Z,1866
2024-03-16T22:26:28.783Z,1901
2024-03-16T22:31:59.354Z,1831
2024-03-16T22:37:29.972Z,1803
2024-03-16T22:43:06.902Z,1784
2024-03-16T22:48:31.041Z,1790
2024-03-16T22:54:01.520Z,1772
2024-03-16T22:59:31.010Z,1756
2024-03-16T23:05:01.504Z,1770
2024-03-16T23:10:31.970Z,1758
2024-03-16T23:16:02.663Z,1805
2024-03-16T23:21:33.153Z,1854
2024-03-16T23:27:03.635Z,1870
2024-03-16T23:32:34.273Z,1908
2024-03-16T23:38:04.729Z,1942
2024-03-16T23:43:34.467Z,1921
2024-03-16T23:49:04.689Z,1956
2024-03-16T23:54:35.201Z,1945
